Time;durP1;ratioP1;P1;durP2;ratioP2;P2;SDS_P1;SDS_P2;PMS_P1;PMS_P2;Temp;Humidity;BMP_temperature;BMP_pressure;BME280_temperature;BME280_humidity;BME280_pressure;Samples;Min_cycle;Max_cycle;Signal;HPM_P1;HPM_P2
2021/07/09 00:02:13;;;;;;;;;;;17.30;99.90;;;;;;4972289;28;20557;-53
2021/07/09 00:04:39;;;;;;;;;;;17.30;99.90;;;;;;4987572;28;20085;-50
2021/07/09 00:07:04;;;;;;;;;;;17.20;99.90;;;;;;4987130;28;20246;-53
2021/07/09 00:09:30;;;;;;;;;;;17.20;99.90;;;;;;4986949;28;20817;-52
2021/07/09 00:11:56;;;;;;;;;;;17.20;99.90;;;;;;4986837;28;19994;-53
2021/07/09 00:14:26;;;;;;;;;;;17.30;99.90;;;;;;4985427;28;20057;-52
2021/07/09 00:16:52;;;;;;;;;;;17.30;99.90;;;;;;4986356;28;19987;-51
2021/07/09 00:19:18;;;;;;;;;;;17.30;99.90;;;;;;4986400;28;20511;-51
2021/07/09 00:21:43;;;;;;;;;;;17.30;99.90;;;;;;4986690;28;20014;-51
2021/07/09 00:24:09;;;;;;;;;;;17.30;99.90;;;;;;4987200;28;20317;-52
2021/07/09 00:26:35;;;;;;;;;;;17.40;99.90;;;;;;4986202;28;19990;-51
2021/07/09 00:29:01;;;;;;;;;;;17.40;99.90;;;;;;4986369;28;19995;-53
2021/07/09 00:31:29;;;;;;;;;;;17.40;99.90;;;;;;4986442;28;19998;-52
2021/07/09 00:33:55;;;;;;;;;;;17.30;99.90;;;;;;4986731;28;19986;-53
2021/07/09 00:36:21;;;;;;;;;;;17.30;99.90;;;;;;4986258;28;19991;-52
2021/07/09 00:38:46;;;;;;;;;;;17.30;99.90;;;;;;4986364;28;20052;-53
2021/07/09 00:41:13;;;;;;;;;;;17.20;99.90;;;;;;4985955;28;20117;-52
2021/07/09 00:43:40;;;;;;;;;;;17.20;99.90;;;;;;4986700;28;20017;-54
2021/07/09 00:46:06;;;;;;;;;;;17.20;99.90;;;;;;4986828;28;20045;-52
2021/07/09 00:48:32;;;;;;;;;;;17.30;99.90;;;;;;4986436;28;19986;-53
2021/07/09 00:51:01;;;;;;;;;;;17.30;99.90;;;;;;4986412;28;19994;-53
2021/07/09 00:53:27;;;;;;;;;;;17.20;99.90;;;;;;4985305;28;20150;-51
2021/07/09 00:55:53;;;;;;;;;;;17.20;99.90;;;;;;4986286;28;19990;-51
2021/07/09 00:58:19;;;;;;;;;;;17.10;99.90;;;;;;4985482;28;19994;-50
2021/07/09 01:00:45;;;;;;;;;;;17.20;99.90;;;;;;4986322;28;19997;-52
2021/07/09 01:03:11;;;;;;;;;;;17.10;99.90;;;;;;4985486;28;20502;-52
2021/07/09 01:05:37;;;;;;;;;;;17.10;99.90;;;;;;4986835;28;20086;-51
2021/07/09 01:08:05;;;;;;;;;;;17.10;99.90;;;;;;4986160;28;19987;-50
2021/07/09 01:10:31;;;;;;;;;;;17.00;99.90;;;;;;4986059;28;20022;-53
2021/07/09 01:12:57;;;;;;;;;;;17.10;99.90;;;;;;4986067;28;20045;-53
2021/07/09 01:15:22;;;;;;;;;;;17.10;99.90;;;;;;4985305;28;20102;-50
2021/07/09 01:17:49;;;;;;;;;;;17.10;99.90;;;;;;4985535;28;20564;-53
2021/07/09 01:20:15;;;;;;;;;;;17.10;99.90;;;;;;4985646;28;20038;-50
2021/07/09 01:22:44;;;;;;;;;;;17.10;99.90;;;;;;4985748;28;20068;-53
2021/07/09 01:25:12;;;;;;;;;;;17.10;99.90;;;;;;4986159;28;20139;-50
2021/07/09 01:27:38;;;;;;;;;;;16.90;99.90;;;;;;4989229;28;19987;-50
2021/07/09 01:30:08;;;;;;;;;;;16.90;99.90;;;;;;4989300;28;20032;-53
2021/07/09 01:32:33;;;;;;;;;;;17.00;99.90;;;;;;4989843;28;20435;-50
2021/07/09 01:34:59;;;;;;;;;;;17.00;99.90;;;;;;4989192;28;19990;-51
2021/07/09 01:37:24;;;;;;;;;;;16.80;99.90;;;;;;4989945;28;19995;-49
2021/07/09 01:39:50;;;;;;;;;;;16.80;99.90;;;;;;4989332;28;20005;-52
2021/07/09 01:42:15;;;;;;;;;;;16.70;99.90;;;;;;4989130;28;20124;-51
2021/07/09 01:44:42;;;;;;;;;;;16.70;99.90;;;;;;4989341;28;20060;-53
2021/07/09 01:47:08;;;;;;;;;;;16.70;99.90;;;;;;4989978;28;19987;-52
2021/07/09 01:49:52;;;;;;;;;;;16.70;99.90;;;;;;4989562;28;19987;-53
2021/07/09 01:52:17;;;;;;;;;;;16.60;99.90;;;;;;4989173;28;19994;-53
2021/07/09 01:54:43;;;;;;;;;;;16.50;99.90;;;;;;4988160;28;20109;-51
2021/07/09 01:57:10;;;;;;;;;;;16.60;99.90;;;;;;4989433;28;19993;-52
2021/07/09 01:59:35;;;;;;;;;;;16.70;99.90;;;;;;4989166;28;20040;-51
2021/07/09 02:02:01;;;;;;;;;;;16.60;99.90;;;;;;4988957;28;20015;-52
2021/07/09 02:04:26;;;;;;;;;;;16.50;99.90;;;;;;4989133;28;20483;-53
2021/07/09 02:06:52;;;;;;;;;;;16.50;99.90;;;;;;4989505;28;19991;-51
2021/07/09 02:09:17;;;;;;;;;;;16.40;99.90;;;;;;4988988;28;19991;-50
2021/07/09 02:11:44;;;;;;;;;;;16.30;99.90;;;;;;4988682;28;19998;-51
2021/07/09 02:14:10;;;;;;;;;;;16.20;99.90;;;;;;4988335;28;20001;-50
2021/07/09 02:16:35;;;;;;;;;;;16.20;99.90;;;;;;4988770;28;19994;-52
2021/07/09 02:19:01;;;;;;;;;;;16.20;99.90;;;;;;5003809;28;20037;-52
2021/07/09 02:21:26;;;;;;;;;;;16.10;99.90;;;;;;4988727;28;19991;-51
2021/07/09 02:23:52;;;;;;;;;;;16.20;99.90;;;;;;4989506;28;20077;-50
2021/07/09 02:26:17;;;;;;;;;;;16.20;99.90;;;;;;4988214;28;19998;-50
2021/07/09 02:28:43;;;;;;;;;;;16.20;99.90;;;;;;4988386;28;20027;-51
2021/07/09 02:31:08;;;;;;;;;;;16.30;99.90;;;;;;4988143;28;20090;-51
2021/07/09 02:33:34;;;;;;;;;;;16.30;99.90;;;;;;4987418;28;19991;-52
2021/07/09 02:36:00;;;;;;;;;;;16.20;99.90;;;;;;4987596;28;19994;-52
2021/07/09 02:38:25;;;;;;;;;;;16.10;99.90;;;;;;4987770;28;19991;-53
2021/07/09 02:40:51;;;;;;;;;;;16.10;99.90;;;;;;4989034;28;19991;-53
2021/07/09 02:43:16;;;;;;;;;;;16.10;99.90;;;;;;4988013;28;20026;-53
2021/07/09 02:45:42;;;;;;;;;;;16.10;99.90;;;;;;4988423;28;20023;-51
2021/07/09 02:48:07;;;;;;;;;;;16.10;99.90;;;;;;4988156;28;19993;-50
2021/07/09 02:50:33;;;;;;;;;;;16.10;99.90;;;;;;4988430;28;19994;-51
2021/07/09 02:52:58;;;;;;;;;;;16.10;99.90;;;;;;4987791;28;19998;-53
2021/07/09 02:55:25;;;;;;;;;;;16.20;99.90;;;;;;4989161;28;19997;-51
2021/07/09 02:57:50;;;;;;;;;;;16.30;99.90;;;;;;4988314;28;20508;-53
2021/07/09 03:00:16;;;;;;;;;;;16.30;99.90;;;;;;4988375;28;19991;-53
2021/07/09 03:02:42;;;;;;;;;;;16.40;99.90;;;;;;4988342;28;20416;-49
2021/07/09 03:05:08;;;;;;;;;;;16.30;99.90;;;;;;4987747;28;19987;-53
2021/07/09 03:07:34;;;;;;;;;;;16.40;99.90;;;;;;4987982;28;20356;-53
2021/07/09 03:09:59;;;;;;;;;;;16.30;99.90;;;;;;4987606;28;19991;-52
2021/07/09 03:12:25;;;;;;;;;;;16.30;99.90;;;;;;4988447;28;19991;-52
2021/07/09 03:14:51;;;;;;;;;;;16.40;99.90;;;;;;4988032;28;19991;-53
2021/07/09 03:17:17;;;;;;;;;;;16.40;99.90;;;;;;4987571;28;20041;-51
2021/07/09 03:19:43;;;;;;;;;;;16.40;99.90;;;;;;4987828;28;19987;-53
2021/07/09 03:22:10;;;;;;;;;;;16.50;99.90;;;;;;4986069;28;20050;-52
2021/07/09 03:24:37;;;;;;;;;;;16.40;99.90;;;;;;4987704;28;20487;-53
2021/07/09 03:27:03;;;;;;;;;;;16.30;99.90;;;;;;4987475;28;19994;-53
2021/07/09 03:29:29;;;;;;;;;;;16.20;99.90;;;;;;4987491;28;19990;-53
2021/07/09 03:31:54;;;;;;;;;;;16.20;99.90;;;;;;4988202;28;20439;-52
2021/07/09 03:34:20;;;;;;;;;;;16.10;99.90;;;;;;4986900;28;20005;-52
2021/07/09 03:36:45;;;;;;;;;;;16.10;99.90;;;;;;4987400;28;20026;-50
2021/07/09 03:39:12;;;;;;;;;;;16.00;99.90;;;;;;4987146;28;20283;-52
2021/07/09 03:41:38;;;;;;;;;;;16.10;99.90;;;;;;4987296;28;20069;-53
2021/07/09 03:44:05;;;;;;;;;;;16.10;99.90;;;;;;4987085;28;20511;-53
2021/07/09 03:46:30;;;;;;;;;;;16.20;99.90;;;;;;4986947;28;20435;-50
2021/07/09 03:48:56;;;;;;;;;;;16.20;99.90;;;;;;4987367;28;19995;-52
2021/07/09 03:51:21;;;;;;;;;;;16.20;99.90;;;;;;4987194;28;19983;-49
2021/07/09 03:53:47;;;;;;;;;;;16.20;99.90;;;;;;4985921;28;20010;-51
2021/07/09 03:56:12;;;;;;;;;;;16.20;99.90;;;;;;4987304;28;20368;-52
2021/07/09 03:58:38;;;;;;;;;;;16.20;99.90;;;;;;4986300;28;19998;-53
2021/07/09 04:01:04;;;;;;;;;;;16.20;99.90;;;;;;4987310;28;19986;-52
2021/07/09 04:03:29;;;;;;;;;;;16.30;99.90;;;;;;4986838;28;20018;-51
2021/07/09 04:05:55;;;;;;;;;;;16.30;99.90;;;;;;4987210;28;19991;-51
2021/07/09 04:08:20;;;;;;;;;;;16.20;99.90;;;;;;4986700;28;20538;-50
2021/07/09 04:10:46;;;;;;;;;;;16.10;99.90;;;;;;4986757;28;20049;-52
2021/07/09 04:13:13;;;;;;;;;;;15.90;99.90;;;;;;4986420;28;20400;-52
2021/07/09 04:15:38;;;;;;;;;;;15.90;99.90;;;;;;4986116;28;20014;-51
2021/07/09 04:18:04;;;;;;;;;;;15.90;99.90;;;;;;4987294;28;19987;-51
2021/07/09 04:20:29;;;;;;;;;;;15.80;99.90;;;;;;4986318;28;19991;-51
2021/07/09 04:22:55;;;;;;;;;;;15.70;99.90;;;;;;4986612;28;20010;-52
2021/07/09 04:25:22;;;;;;;;;;;15.70;99.90;;;;;;4986341;28;20085;-52
2021/07/09 04:27:49;;;;;;;;;;;15.60;99.90;;;;;;4986489;28;20078;-52
2021/07/09 04:30:14;;;;;;;;;;;15.60;99.90;;;;;;4986220;28;20361;-53
2021/07/09 04:32:40;;;;;;;;;;;15.70;99.90;;;;;;4986519;28;20005;-49
2021/07/09 04:35:06;;;;;;;;;;;15.70;99.90;;;;;;4986632;28;20005;-53
2021/07/09 04:37:32;;;;;;;;;;;15.80;99.90;;;;;;4986060;28;20453;-51
2021/07/09 04:39:57;;;;;;;;;;;16.00;99.90;;;;;;4986372;28;19995;-50
2021/07/09 04:42:23;;;;;;;;;;;16.10;99.90;;;;;;4986077;28;20460;-52
2021/07/09 04:44:48;;;;;;;;;;;16.10;99.90;;;;;;4986301;28;19997;-51
2021/07/09 04:47:14;;;;;;;;;;;16.20;99.90;;;;;;4986388;28;19994;-52
2021/07/09 04:49:40;;;;;;;;;;;16.30;99.90;;;;;;4986238;28;19990;-51
2021/07/09 04:52:07;;;;;;;;;;;16.40;99.90;;;;;;4986084;28;20372;-52
2021/07/09 04:54:32;;;;;;;;;;;16.40;99.90;;;;;;4986130;28;19999;-52
2021/07/09 04:56:58;;;;;;;;;;;16.40;99.90;;;;;;4985805;28;20046;-52
2021/07/09 04:59:23;;;;;;;;;;;16.40;99.90;;;;;;4986329;28;20026;-53
2021/07/09 05:01:49;;;;;;;;;;;16.40;99.90;;;;;;4987580;28;20101;-53
2021/07/09 05:04:15;;;;;;;;;;;16.50;99.90;;;;;;4990017;28;19991;-52
2021/07/09 05:06:41;;;;;;;;;;;16.50;99.90;;;;;;4990298;28;19995;-51
2021/07/09 05:09:07;;;;;;;;;;;16.50;99.90;;;;;;4990340;28;20368;-49
2021/07/09 05:11:34;;;;;;;;;;;16.50;99.90;;;;;;4991176;28;19986;-52
2021/07/09 05:14:01;;;;;;;;;;;16.40;99.90;;;;;;4989714;28;20372;-54
2021/07/09 05:16:26;;;;;;;;;;;16.40;99.90;;;;;;4989616;28;20002;-51
2021/07/09 05:18:53;;;;;;;;;;;16.50;99.90;;;;;;4989527;28;19991;-49
2021/07/09 05:21:18;;;;;;;;;;;16.40;99.90;;;;;;4989908;28;20326;-55
2021/07/09 05:23:44;;;;;;;;;;;16.50;99.90;;;;;;4989998;28;20015;-53
2021/07/09 05:26:09;;;;;;;;;;;16.60;99.90;;;;;;4989218;28;19998;-52
2021/07/09 05:28:35;;;;;;;;;;;16.60;99.90;;;;;;4991313;28;20020;-51
2021/07/09 05:31:01;;;;;;;;;;;16.60;99.90;;;;;;4990642;28;19990;-51
2021/07/09 05:33:26;;;;;;;;;;;16.60;99.90;;;;;;5004278;28;20010;-54
2021/07/09 05:35:54;;;;;;;;;;;16.60;99.90;;;;;;5010330;28;20393;-51
2021/07/09 05:38:19;;;;;;;;;;;16.60;99.90;;;;;;4995122;28;19998;-53
2021/07/09 05:40:45;;;;;;;;;;;16.70;99.90;;;;;;4991357;28;19995;-52
2021/07/09 05:43:11;;;;;;;;;;;16.70;99.90;;;;;;4990348;28;20060;-52
2021/07/09 05:45:36;;;;;;;;;;;16.70;99.90;;;;;;4991218;28;19999;-52
2021/07/09 05:48:02;;;;;;;;;;;16.60;99.90;;;;;;4990424;28;20037;-52
2021/07/09 05:50:28;;;;;;;;;;;16.70;99.90;;;;;;4990550;28;20090;-51
2021/07/09 05:52:55;;;;;;;;;;;16.70;99.90;;;;;;4990655;28;20030;-53
2021/07/09 05:55:20;;;;;;;;;;;16.70;99.90;;;;;;4990288;28;19999;-54
2021/07/09 05:57:46;;;;;;;;;;;16.80;99.90;;;;;;4990520;28;20073;-53
2021/07/09 06:00:12;;;;;;;;;;;16.70;99.90;;;;;;4990307;28;20522;-52
2021/07/09 06:02:37;;;;;;;;;;;16.70;99.90;;;;;;4991254;28;20010;-53
2021/07/09 06:05:04;;;;;;;;;;;16.80;99.90;;;;;;4990691;28;20364;-52
2021/07/09 06:07:29;;;;;;;;;;;16.80;99.90;;;;;;4990642;28;20073;-52
2021/07/09 06:09:55;;;;;;;;;;;16.80;99.90;;;;;;4990484;28;20086;-53
2021/07/09 06:12:20;;;;;;;;;;;16.80;99.90;;;;;;4990286;28;20344;-53
2021/07/09 06:14:46;;;;;;;;;;;16.80;99.90;;;;;;4988719;28;19999;-51
2021/07/09 06:17:11;;;;;;;;;;;16.80;99.90;;;;;;4988548;28;19995;-50
2021/07/09 06:19:37;;;;;;;;;;;16.80;99.90;;;;;;4989874;28;20042;-50
2021/07/09 06:22:03;;;;;;;;;;;16.80;99.90;;;;;;4988453;28;20519;-52
2021/07/09 06:24:28;;;;;;;;;;;16.70;99.90;;;;;;4988694;28;20483;-52
2021/07/09 06:26:54;;;;;;;;;;;16.80;99.90;;;;;;4988856;28;20060;-52
2021/07/09 06:29:19;;;;;;;;;;;17.00;99.90;;;;;;4988212;28;20034;-52
2021/07/09 06:31:45;;;;;;;;;;;16.90;99.90;;;;;;4987747;28;19994;-52
2021/07/09 06:34:11;;;;;;;;;;;17.00;99.90;;;;;;4988439;28;19990;-53
2021/07/09 06:36:37;;;;;;;;;;;17.00;99.90;;;;;;4989187;28;19991;-53
2021/07/09 06:39:03;;;;;;;;;;;17.00;99.90;;;;;;4988386;28;19994;-52
2021/07/09 06:41:29;;;;;;;;;;;17.10;99.90;;;;;;4988583;28;20037;-53
2021/07/09 06:43:56;;;;;;;;;;;17.30;99.90;;;;;;4988298;28;20015;-51
2021/07/09 06:46:23;;;;;;;;;;;17.30;99.90;;;;;;4988413;28;19993;-51
2021/07/09 06:48:50;;;;;;;;;;;17.30;99.90;;;;;;4988584;28;19991;-53
2021/07/09 06:51:15;;;;;;;;;;;17.40;99.90;;;;;;4988115;28;19987;-52
2021/07/09 06:53:41;;;;;;;;;;;17.50;99.90;;;;;;4988226;28;20009;-52
2021/07/09 06:56:06;;;;;;;;;;;17.40;99.90;;;;;;5003419;28;20038;-50
2021/07/09 06:58:32;;;;;;;;;;;17.40;99.90;;;;;;4988225;28;19993;-53
2021/07/09 07:00:59;;;;;;;;;;;17.40;99.90;;;;;;4987943;28;20022;-53
2021/07/09 07:03:24;;;;;;;;;;;17.40;99.90;;;;;;4988269;28;20018;-54
2021/07/09 07:05:50;;;;;;;;;;;17.40;99.90;;;;;;4988145;28;20598;-53
2021/07/09 07:08:16;;;;;;;;;;;17.50;99.90;;;;;;5002875;28;20566;-49
2021/07/09 07:10:43;;;;;;;;;;;17.60;99.90;;;;;;4988048;28;20046;-53
2021/07/09 07:13:10;;;;;;;;;;;17.60;99.90;;;;;;4988418;28;19987;-54
2021/07/09 07:15:37;;;;;;;;;;;17.80;99.90;;;;;;4988134;28;20069;-54
2021/07/09 07:18:08;;;;;;;;;;;17.90;99.90;;;;;;4987621;28;19987;-54
2021/07/09 07:20:37;;;;;;;;;;;17.90;99.90;;;;;;4988466;28;20025;-52
2021/07/09 07:23:03;;;;;;;;;;;17.90;99.90;;;;;;4987588;28;20377;-53
2021/07/09 07:25:28;;;;;;;;;;;18.00;99.90;;;;;;4987466;28;19996;-50
2021/07/09 07:27:54;;;;;;;;;;;18.00;99.90;;;;;;4987676;28;20023;-52
2021/07/09 07:30:19;;;;;;;;;;;18.10;99.90;;;;;;4987641;28;20029;-52
2021/07/09 07:32:48;;;;;;;;;;;18.00;99.90;;;;;;4987673;28;19991;-52
2021/07/09 07:35:14;;;;;;;;;;;18.00;99.90;;;;;;4987287;28;19986;-53
2021/07/09 07:37:40;;;;;;;;;;;18.00;99.90;;;;;;4987916;28;20018;-52
2021/07/09 07:40:06;;;;;;;;;;;18.00;99.90;;;;;;4987758;28;20054;-52
2021/07/09 07:42:32;;;;;;;;;;;18.00;99.90;;;;;;4987121;28;20132;-52
2021/07/09 07:44:57;;;;;;;;;;;17.90;99.90;;;;;;4987314;28;20483;-51
2021/07/09 07:47:23;;;;;;;;;;;17.90;99.90;;;;;;4987104;28;20022;-53
2021/07/09 07:49:48;;;;;;;;;;;18.00;99.90;;;;;;4987434;28;20439;-53
2021/07/09 07:52:14;;;;;;;;;;;18.20;99.90;;;;;;4986823;28;19986;-53
2021/07/09 07:54:39;;;;;;;;;;;18.10;99.90;;;;;;4987335;28;20006;-53
2021/07/09 07:57:05;;;;;;;;;;;18.00;99.90;;;;;;4987652;28;20033;-53
2021/07/09 07:59:31;;;;;;;;;;;18.20;99.90;;;;;;4987135;28;20487;-53
2021/07/09 08:01:56;;;;;;;;;;;18.30;99.90;;;;;;4986876;28;20421;-53
2021/07/09 08:04:22;;;;;;;;;;;18.40;99.90;;;;;;4986780;28;19994;-52
2021/07/09 08:06:48;;;;;;;;;;;18.40;99.90;;;;;;4987047;28;20472;-54
2021/07/09 08:09:13;;;;;;;;;;;18.40;99.90;;;;;;4986632;28;19991;-53
2021/07/09 08:11:40;;;;;;;;;;;18.60;99.90;;;;;;4987212;28;19991;-50
2021/07/09 08:14:05;;;;;;;;;;;18.60;99.90;;;;;;4987383;28;20142;-52
2021/07/09 08:16:31;;;;;;;;;;;18.60;99.90;;;;;;4986039;28;19997;-52
2021/07/09 08:18:56;;;;;;;;;;;18.60;99.90;;;;;;4986874;28;20479;-51
2021/07/09 08:21:22;;;;;;;;;;;18.60;99.90;;;;;;4986523;28;20342;-53
2021/07/09 08:23:48;;;;;;;;;;;18.60;99.90;;;;;;4986570;28;20086;-53
2021/07/09 08:26:15;;;;;;;;;;;18.70;99.90;;;;;;4986306;28;20536;-54
2021/07/09 08:28:40;;;;;;;;;;;18.80;99.90;;;;;;5001512;28;19994;-53
2021/07/09 08:31:06;;;;;;;;;;;18.80;99.90;;;;;;4987342;28;19994;-54
2021/07/09 08:33:32;;;;;;;;;;;18.60;99.90;;;;;;4986500;28;20030;-53
2021/07/09 08:35:58;;;;;;;;;;;18.80;99.90;;;;;;4986147;28;19986;-54
2021/07/09 08:38:24;;;;;;;;;;;19.00;99.90;;;;;;4986242;28;20045;-53
2021/07/09 08:40:49;;;;;;;;;;;19.10;99.90;;;;;;4986297;28;19991;-54
2021/07/09 08:43:15;;;;;;;;;;;19.10;99.90;;;;;;4986379;28;20011;-55
2021/07/09 08:45:40;;;;;;;;;;;19.10;99.90;;;;;;4986575;28;20412;-52
2021/07/09 08:48:08;;;;;;;;;;;19.20;99.90;;;;;;4986889;28;20001;-50
2021/07/09 08:50:33;;;;;;;;;;;19.30;99.90;;;;;;4986561;28;20376;-52
2021/07/09 08:52:59;;;;;;;;;;;19.50;99.90;;;;;;4985953;28;20100;-51
2021/07/09 08:55:24;;;;;;;;;;;19.40;99.90;;;;;;4986045;28;20464;-52
2021/07/09 08:57:50;;;;;;;;;;;19.50;99.90;;;;;;4986401;28;20005;-52
2021/07/09 09:00:21;;;;;;;;;;;19.50;99.90;;;;;;4986207;28;20022;-54
2021/07/09 09:02:47;;;;;;;;;;;19.50;99.90;;;;;;4986382;28;20018;-53
2021/07/09 09:05:23;;;;;;;;;;;19.70;99.90;;;;;;4985993;28;20476;-51
2021/07/09 09:07:56;;;;;;;;;;;19.80;99.90;;;;;;4986017;28;20042;-53
2021/07/09 09:10:35;;;;;;;;;;;19.90;99.90;;;;;;4986103;28;20005;-53
2021/07/09 09:13:26;;;;;;;;;;;19.80;99.90;;;;;;4986131;28;19991;-52
2021/07/09 09:16:01;;;;;;;;;;;19.80;99.90;;;;;;4983641;28;20026;-54
2021/07/09 09:18:32;;;;;;;;;;;20.00;99.90;;;;;;4986286;28;20097;-54
2021/07/09 09:21:00;;;;;;;;;;;20.00;99.90;;;;;;4986053;28;19998;-53
2021/07/09 09:23:26;;;;;;;;;;;19.90;99.90;;;;;;4985950;28;20018;-49
2021/07/09 09:25:53;;;;;;;;;;;20.00;99.90;;;;;;4986195;28;19997;-53
2021/07/09 09:28:18;;;;;;;;;;;20.10;99.90;;;;;;4985910;28;20623;-54
2021/07/09 09:30:45;;;;;;;;;;;20.30;99.90;;;;;;4985714;28;19987;-52
2021/07/09 09:33:13;;;;;;;;;;;20.20;99.90;;;;;;4985798;28;20050;-53
2021/07/09 09:35:42;;;;;;;;;;;20.30;99.90;;;;;;4986615;28;20010;-53
2021/07/09 09:38:08;;;;;;;;;;;20.30;99.90;;;;;;4986255;28;19994;-50
2021/07/09 09:40:34;;;;;;;;;;;20.50;99.90;;;;;;4986570;28;19998;-53
2021/07/09 09:43:04;;;;;;;;;;;20.60;99.90;;;;;;4985698;28;20006;-53
2021/07/09 09:45:30;;;;;;;;;;;20.60;99.90;;;;;;4985847;28;19990;-52
2021/07/09 09:48:02;;;;;;;;;;;20.60;99.90;;;;;;4987939;28;20094;-55
2021/07/09 09:50:27;;;;;;;;;;;20.60;99.90;;;;;;5004189;28;19994;-54
2021/07/09 09:52:53;;;;;;;;;;;20.70;99.90;;;;;;4988730;28;20607;-55
2021/07/09 09:55:19;;;;;;;;;;;20.80;99.90;;;;;;4991465;28;20082;-54
2021/07/09 09:57:45;;;;;;;;;;;21.00;99.90;;;;;;4994708;28;19987;-54
2021/07/09 10:00:27;;;;;;;;;;;21.10;99.90;;;;;;4990615;28;20085;-54
2021/07/09 10:02:52;;;;;;;;;;;21.10;99.90;;;;;;4987780;28;20016;-55
2021/07/09 10:05:18;;;;;;;;;;;21.00;99.90;;;;;;4990883;28;20069;-54
2021/07/09 10:07:44;;;;;;;;;;;21.10;99.90;;;;;;4990435;28;19994;-53
2021/07/09 10:10:10;;;;;;;;;;;21.10;99.90;;;;;;4977261;28;19991;-55
2021/07/09 10:12:37;;;;;;;;;;;21.00;99.90;;;;;;4972187;28;19983;-55
2021/07/09 10:15:03;;;;;;;;;;;21.00;99.90;;;;;;4984300;28;20368;-55
2021/07/09 10:17:29;;;;;;;;;;;21.20;99.90;;;;;;4988280;28;20490;-54
2021/07/09 10:19:55;;;;;;;;;;;21.40;99.90;;;;;;4990083;28;20074;-56
2021/07/09 10:22:21;;;;;;;;;;;21.60;99.90;;;;;;4989999;28;20465;-55
2021/07/09 10:24:48;;;;;;;;;;;21.60;99.90;;;;;;4991006;28;20002;-54
2021/07/09 10:27:18;;;;;;;;;;;21.70;99.90;;;;;;4989385;28;20018;-54
2021/07/09 10:29:44;;;;;;;;;;;21.90;99.90;;;;;;4978068;28;20129;-56
2021/07/09 10:32:10;;;;;;;;;;;21.80;99.90;;;;;;4989545;28;19991;-55
2021/07/09 10:34:37;;;;;;;;;;;21.80;99.90;;;;;;4982505;28;20018;-54
2021/07/09 10:37:03;;;;;;;;;;;21.70;99.90;;;;;;4971044;28;20453;-55
2021/07/09 10:39:45;;;;;;;;;;;21.50;99.90;;;;;;4989653;28;20010;-56
2021/07/09 10:42:11;;;;;;;;;;;21.70;99.90;;;;;;4989532;28;20069;-55
2021/07/09 10:44:36;;;;;;;;;;;21.70;99.90;;;;;;4985051;28;20112;-56
2021/07/09 10:47:15;;;;;;;;;;;21.80;99.90;;;;;;4970868;28;19998;-55
2021/07/09 10:49:50;;;;;;;;;;;21.90;99.90;;;;;;4970782;28;20780;-60
2021/07/09 10:52:34;;;;;;;;;;;22.20;99.90;;;;;;4970468;28;20492;-60
2021/07/09 10:55:00;;;;;;;;;;;22.20;99.90;;;;;;4988577;28;20114;-61
2021/07/09 10:57:25;;;;;;;;;;;22.20;99.90;;;;;;4990159;28;19998;-60
2021/07/09 11:00:09;;;;;;;;;;;22.30;99.90;;;;;;4989377;28;19997;-60
2021/07/09 11:02:54;;;;;;;;;;;22.30;99.90;;;;;;4990735;28;20017;-61
2021/07/09 11:05:38;;;;;;;;;;;22.40;99.90;;;;;;4969959;28;20041;-61
2021/07/09 11:08:22;;;;;;;;;;;22.50;99.90;;;;;;4970274;28;19986;-61
2021/07/09 11:10:56;;;;;;;;;;;22.70;99.90;;;;;;4976696;28;19991;-61
2021/07/09 11:13:46;;;;;;;;;;;22.70;99.90;;;;;;4989325;28;19993;-61
2021/07/09 11:16:22;;;;;;;;;;;22.80;99.90;;;;;;4989134;28;19999;-60
2021/07/09 11:18:59;;;;;;;;;;;23.00;99.90;;;;;;4989710;28;19990;-61
2021/07/09 11:21:31;;;;;;;;;;;23.10;99.90;;;;;;4989247;28;19991;-61
2021/07/09 11:24:01;;;;;;;;;;;23.10;99.90;;;;;;4989602;28;20010;-61
2021/07/09 11:26:28;;;;;;;;;;;22.70;99.90;;;;;;4989397;28;20353;-61
2021/07/09 11:28:53;;;;;;;;;;;22.70;99.90;;;;;;4987724;28;20033;-60
2021/07/09 11:31:34;;;;;;;;;;;22.90;99.90;;;;;;4987148;28;20041;-56
2021/07/09 11:34:04;;;;;;;;;;;23.00;99.90;;;;;;5002161;28;20022;-55
2021/07/09 11:36:40;;;;;;;;;;;23.20;99.90;;;;;;4986872;28;19995;-56
2021/07/09 11:39:16;;;;;;;;;;;23.20;99.90;;;;;;4983497;28;19991;-56
2021/07/09 11:41:50;;;;;;;;;;;23.20;99.90;;;;;;4987624;28;19994;-56
2021/07/09 11:44:17;;;;;;;;;;;23.20;99.90;;;;;;4986663;28;19990;-56
2021/07/09 11:46:45;;;;;;;;;;;23.30;99.90;;;;;;4986635;28;19998;-58
2021/07/09 11:49:10;;;;;;;;;;;23.50;99.90;;;;;;4999543;28;20514;-57
2021/07/09 11:51:36;;;;;;;;;;;23.60;99.90;;;;;;5004060;28;20006;-56
2021/07/09 11:54:08;;;;;;;;;;;23.70;99.90;;;;;;4989753;28;20045;-56
2021/07/09 11:56:38;;;;;;;;;;;23.90;99.90;;;;;;4984643;28;20598;-57
2021/07/09 11:59:16;;;;;;;;;;;24.10;99.90;;;;;;4980155;28;19998;-56
2021/07/09 12:01:42;;;;;;;;;;;24.00;99.90;;;;;;4975123;28;20097;-56
2021/07/09 12:04:08;;;;;;;;;;;23.90;99.90;;;;;;4986748;28;20135;-57
2021/07/09 12:06:33;;;;;;;;;;;24.20;99.90;;;;;;4986709;28;20037;-57
2021/07/09 12:08:59;;;;;;;;;;;23.80;99.90;;;;;;4986176;28;20530;-58
2021/07/09 12:11:25;;;;;;;;;;;23.60;99.90;;;;;;4986163;28;20599;-58
2021/07/09 12:14:00;;;;;;;;;;;23.80;99.90;;;;;;4986753;28;19998;-58
2021/07/09 12:16:27;;;;;;;;;;;24.30;99.90;;;;;;4985719;28;19994;-58
2021/07/09 12:18:52;;;;;;;;;;;24.50;99.90;;;;;;4986278;28;20006;-58
2021/07/09 12:21:18;;;;;;;;;;;24.30;99.90;;;;;;4985743;28;20473;-58
2021/07/09 12:23:44;;;;;;;;;;;24.30;99.90;;;;;;4986439;28;20010;-58
2021/07/09 12:26:10;;;;;;;;;;;24.30;99.90;;;;;;4985759;28;19998;-57
2021/07/09 12:28:35;;;;;;;;;;;24.50;99.90;;;;;;4986184;28;19999;-56
2021/07/09 12:31:02;;;;;;;;;;;24.40;99.90;;;;;;4985297;28;19999;-57
2021/07/09 12:33:33;;;;;;;;;;;24.40;99.90;;;;;;4985552;28;20044;-57
2021/07/09 12:36:01;;;;;;;;;;;24.60;99.90;;;;;;4985665;28;20001;-57
2021/07/09 12:38:27;;;;;;;;;;;24.80;99.90;;;;;;4987095;28;19999;-56
2021/07/09 12:40:53;;;;;;;;;;;25.00;99.90;;;;;;4986854;28;19987;-57
2021/07/09 12:43:19;;;;;;;;;;;25.20;99.90;;;;;;4985487;28;20373;-57
2021/07/09 12:45:53;;;;;;;;;;;25.20;99.90;;;;;;4986267;28;20465;-58
2021/07/09 12:48:35;;;;;;;;;;;25.10;99.90;;;;;;4985805;28;19998;-57
2021/07/09 12:51:16;;;;;;;;;;;25.20;99.90;;;;;;4986125;28;20136;-58
2021/07/09 12:53:53;;;;;;;;;;;25.40;99.90;;;;;;4988398;28;20038;-58
2021/07/09 12:56:19;;;;;;;;;;;25.60;99.90;;;;;;4988119;28;19994;-58
2021/07/09 12:58:45;;;;;;;;;;;25.90;99.90;;;;;;4988421;28;19990;-58
2021/07/09 13:01:13;;;;;;;;;;;25.90;99.90;;;;;;4987939;28;19995;-58
2021/07/09 13:03:42;;;;;;;;;;;26.10;99.90;;;;;;4988062;28;20011;-58
2021/07/09 13:06:12;;;;;;;;;;;26.40;99.90;;;;;;4988318;28;19999;-58
2021/07/09 13:08:39;;;;;;;;;;;26.50;99.90;;;;;;4988970;28;19991;-58
2021/07/09 13:11:09;;;;;;;;;;;26.30;99.90;;;;;;4988100;28;20420;-58
2021/07/09 13:13:39;;;;;;;;;;;26.30;99.90;;;;;;4988796;28;20013;-58
2021/07/09 13:16:05;;;;;;;;;;;26.60;99.90;;;;;;4988323;28;19998;-58
2021/07/09 13:18:32;;;;;;;;;;;26.70;99.90;;;;;;4987726;28;19987;-58
2021/07/09 13:20:58;;;;;;;;;;;26.80;99.90;;;;;;4987621;28;20037;-58
2021/07/09 13:23:24;;;;;;;;;;;26.90;99.90;;;;;;4990370;28;20014;-58
2021/07/09 13:26:06;;;;;;;;;;;26.70;99.90;;;;;;4990338;28;20002;-58
2021/07/09 13:28:39;;;;;;;;;;;27.00;99.90;;;;;;4994628;28;20115;-58
2021/07/09 13:31:05;;;;;;;;;;;27.30;99.90;;;;;;4988682;28;20093;-58
2021/07/09 13:33:30;;;;;;;;;;;27.00;99.90;;;;;;4988934;28;20037;-58
2021/07/09 13:35:56;;;;;;;;;;;26.80;99.90;;;;;;4979765;28;19998;-59
2021/07/09 13:38:21;;;;;;;;;;;26.90;99.90;;;;;;4990436;28;20165;-58
2021/07/09 13:40:47;;;;;;;;;;;27.10;99.90;;;;;;4990354;28;19998;-58
2021/07/09 13:43:13;;;;;;;;;;;27.30;99.90;;;;;;4989572;28;20014;-58
2021/07/09 13:45:39;;;;;;;;;;;27.40;99.90;;;;;;4996425;28;19990;-58
2021/07/09 13:48:04;;;;;;;;;;;27.50;99.90;;;;;;4993532;28;19995;-59
2021/07/09 13:50:31;;;;;;;;;;;27.50;99.90;;;;;;4991041;28;19990;-58
2021/07/09 13:52:57;;;;;;;;;;;27.50;99.90;;;;;;4989095;28;20007;-58
2021/07/09 13:55:22;;;;;;;;;;;27.40;99.90;;;;;;4990036;28;20486;-58
2021/07/09 13:57:48;;;;;;;;;;;27.50;99.90;;;;;;4990407;28;20484;-58
2021/07/09 14:00:14;;;;;;;;;;;27.60;99.90;;;;;;4988967;28;20468;-58
2021/07/09 14:02:40;;;;;;;;;;;27.70;99.90;;;;;;4990042;28;20531;-58
2021/07/09 14:05:05;;;;;;;;;;;27.30;99.90;;;;;;4989462;28;20377;-58
2021/07/09 14:07:31;;;;;;;;;;;26.80;99.90;;;;;;4990043;28;20025;-58
2021/07/09 14:09:56;;;;;;;;;;;26.90;99.90;;;;;;4989896;28;19998;-58
2021/07/09 14:12:22;;;;;;;;;;;26.90;99.90;;;;;;4984565;28;20425;-58
2021/07/09 14:14:47;;;;;;;;;;;27.20;99.90;;;;;;4989632;28;20367;-58
2021/07/09 14:17:13;;;;;;;;;;;27.50;99.90;;;;;;4989655;28;20469;-57